sensor_id;sensor_type;location;lat;lon;timestamp;temperature;humidity
3860;DHT22;1945;52.036;8.614;2023-03-13T00:02:19;9.00;1.00
3860;DHT22;1945;52.036;8.614;2023-03-13T00:04:47;9.00;1.00
3860;DHT22;1945;52.036;8.614;2023-03-13T00:07:13;9.00;1.00
3860;DHT22;1945;52.036;8.614;2023-03-13T00:09:40;9.00;1.00
3860;DHT22;1945;52.036;8.614;2023-03-13T00:12:07;9.00;1.00
3860;DHT22;1945;52.036;8.614;2023-03-13T00:14:34;9.00;1.00
3860;DHT22;1945;52.036;8.614;2023-03-13T00:17:00;8.90;1.00
3860;DHT22;1945;52.036;8.614;2023-03-13T00:19:27;9.00;1.00
3860;DHT22;1945;52.036;8.614;2023-03-13T00:21:55;9.00;1.00
3860;DHT22;1945;52.036;8.614;2023-03-13T00:24:22;9.00;1.00
3860;DHT22;1945;52.036;8.614;2023-03-13T00:26:49;9.00;1.00
3860;DHT22;1945;52.036;8.614;2023-03-13T00:29:15;9.10;1.00
3860;DHT22;1945;52.036;8.614;2023-03-13T00:31:42;9.00;1.00
3860;DHT22;1945;52.036;8.614;2023-03-13T00:34:08;9.00;1.00
3860;DHT22;1945;52.036;8.614;2023-03-13T00:36:36;9.00;1.00
3860;DHT22;1945;52.036;8.614;2023-03-13T00:39:05;9.00;1.00
3860;DHT22;1945;52.036;8.614;2023-03-13T00:41:32;9.00;1.00
3860;DHT22;1945;52.036;8.614;2023-03-13T00:43:59;9.00;1.00
3860;DHT22;1945;52.036;8.614;2023-03-13T00:46:27;9.00;1.00
3860;DHT22;1945;52.036;8.614;2023-03-13T00:48:54;9.00;1.00
3860;DHT22;1945;52.036;8.614;2023-03-13T00:51:22;9.00;1.00
3860;DHT22;1945;52.036;8.614;2023-03-13T00:53:51;8.90;1.00
3860;DHT22;1945;52.036;8.614;2023-03-13T00:56:19;9.00;1.00
3860;DHT22;1945;52.036;8.614;2023-03-13T00:58:48;8.90;1.00
3860;DHT22;1945;52.036;8.614;2023-03-13T01:01:17;9.00;1.00
3860;DHT22;1945;52.036;8.614;2023-03-13T01:03:46;9.00;1.00
3860;DHT22;1945;52.036;8.614;2023-03-13T01:06:16;9.00;1.00
3860;DHT22;1945;52.036;8.614;2023-03-13T01:08:43;9.00;1.00
3860;DHT22;1945;52.036;8.614;2023-03-13T01:11:11;9.00;1.00
3860;DHT22;1945;52.036;8.614;2023-03-13T01:13:39;8.70;1.00
3860;DHT22;1945;52.036;8.614;2023-03-13T01:16:08;9.20;1.00
3860;DHT22;1945;52.036;8.614;2023-03-13T01:18:37;9.10;1.00
3860;DHT22;1945;52.036;8.614;2023-03-13T01:21:04;9.10;1.00
3860;DHT22;1945;52.036;8.614;2023-03-13T01:23:32;9.30;1.00
3860;DHT22;1945;52.036;8.614;2023-03-13T01:25:59;9.10;1.00
3860;DHT22;1945;52.036;8.614;2023-03-13T01:28:26;9.20;1.00
3860;DHT22;1945;52.036;8.614;2023-03-13T01:30:54;9.20;1.00
3860;DHT22;1945;52.036;8.614;2023-03-13T01:33:21;9.20;1.00
3860;DHT22;1945;52.036;8.614;2023-03-13T01:35:47;9.30;1.00
3860;DHT22;1945;52.036;8.614;2023-03-13T01:38:14;9.20;1.00
3860;DHT22;1945;52.036;8.614;2023-03-13T01:40:42;9.20;1.00
3860;DHT22;1945;52.036;8.614;2023-03-13T01:43:17;9.20;1.00
3860;DHT22;1945;52.036;8.614;2023-03-13T01:45:58;9.10;1.00
3860;DHT22;1945;52.036;8.614;2023-03-13T01:48:39;9.00;1.00
3860;DHT22;1945;52.036;8.614;2023-03-13T01:51:09;9.00;23.90
3860;DHT22;1945;52.036;8.614;2023-03-13T01:53:39;8.90;99.90
3860;DHT22;1945;52.036;8.614;2023-03-13T01:56:10;8.90;99.90
3860;DHT22;1945;52.036;8.614;2023-03-13T01:58:38;8.90;99.90
3860;DHT22;1945;52.036;8.614;2023-03-13T02:01:06;8.90;99.90
3860;DHT22;1945;52.036;8.614;2023-03-13T02:03:34;8.80;99.90
3860;DHT22;1945;52.036;8.614;2023-03-13T02:06:03;8.80;99.90
3860;DHT22;1945;52.036;8.614;2023-03-13T02:08:34;8.80;1.00
3860;DHT22;1945;52.036;8.614;2023-03-13T02:11:07;8.80;1.00
3860;DHT22;1945;52.036;8.614;2023-03-13T02:13:35;8.80;1.00
3860;DHT22;1945;52.036;8.614;2023-03-13T02:16:03;8.80;1.00
3860;DHT22;1945;52.036;8.614;2023-03-13T02:18:31;8.90;1.00
3860;DHT22;1945;52.036;8.614;2023-03-13T02:21:07;8.80;1.00
3860;DHT22;1945;52.036;8.614;2023-03-13T02:23:39;8.80;1.00
3860;DHT22;1945;52.036;8.614;2023-03-13T02:26:09;9.20;1.00
3860;DHT22;1945;52.036;8.614;2023-03-13T02:28:37;8.80;1.00
3860;DHT22;1945;52.036;8.614;2023-03-13T02:31:05;8.80;1.00
3860;DHT22;1945;52.036;8.614;2023-03-13T02:33:35;9.40;1.00
3860;DHT22;1945;52.036;8.614;2023-03-13T02:36:04;8.90;1.00
3860;DHT22;1945;52.036;8.614;2023-03-13T02:38:35;8.80;1.00
3860;DHT22;1945;52.036;8.614;2023-03-13T02:41:03;8.90;1.00
3860;DHT22;1945;52.036;8.614;2023-03-13T02:43:33;8.80;1.00
3860;DHT22;1945;52.036;8.614;2023-03-13T02:46:06;8.80;1.00
3860;DHT22;1945;52.036;8.614;2023-03-13T02:48:35;8.80;1.00
3860;DHT22;1945;52.036;8.614;2023-03-13T02:51:04;8.90;1.00
3860;DHT22;1945;52.036;8.614;2023-03-13T02:53:32;8.90;1.00
3860;DHT22;1945;52.036;8.614;2023-03-13T02:56:00;8.90;1.00
3860;DHT22;1945;52.036;8.614;2023-03-13T02:58:27;8.90;1.00
3860;DHT22;1945;52.036;8.614;2023-03-13T03:01:02;8.90;1.00
3860;DHT22;1945;52.036;8.614;2023-03-13T03:03:32;8.80;1.00
3860;DHT22;1945;52.036;8.614;2023-03-13T03:05:59;8.80;1.00
3860;DHT22;1945;52.036;8.614;2023-03-13T03:08:26;8.80;1.00
3860;DHT22;1945;52.036;8.614;2023-03-13T03:10:52;8.70;1.00
3860;DHT22;1945;52.036;8.614;2023-03-13T03:13:19;8.70;93.90
3860;DHT22;1945;52.036;8.614;2023-03-13T03:15:46;8.70;99.90
3860;DHT22;1945;52.036;8.614;2023-03-13T03:18:14;8.70;99.90
3860;DHT22;1945;52.036;8.614;2023-03-13T03:20:40;8.70;99.90
3860;DHT22;1945;52.036;8.614;2023-03-13T03:23:07;8.60;99.90
3860;DHT22;1945;52.036;8.614;2023-03-13T03:25:33;8.60;99.90
3860;DHT22;1945;52.036;8.614;2023-03-13T03:28:00;8.70;99.90
3860;DHT22;1945;52.036;8.614;2023-03-13T03:30:27;8.60;99.90
3860;DHT22;1945;52.036;8.614;2023-03-13T03:32:53;8.70;99.90
3860;DHT22;1945;52.036;8.614;2023-03-13T03:35:21;8.70;99.90
3860;DHT22;1945;52.036;8.614;2023-03-13T03:37:48;8.70;99.90
3860;DHT22;1945;52.036;8.614;2023-03-13T03:40:15;8.70;99.90
3860;DHT22;1945;52.036;8.614;2023-03-13T03:42:42;8.70;99.90
3860;DHT22;1945;52.036;8.614;2023-03-13T03:45:09;8.70;99.90
3860;DHT22;1945;52.036;8.614;2023-03-13T03:47:36;8.70;99.90
3860;DHT22;1945;52.036;8.614;2023-03-13T03:50:03;8.80;99.90
3860;DHT22;1945;52.036;8.614;2023-03-13T03:52:31;8.80;99.90
3860;DHT22;1945;52.036;8.614;2023-03-13T03:54:57;8.80;99.90
3860;DHT22;1945;52.036;8.614;2023-03-13T03:57:24;8.80;99.90
3860;DHT22;1945;52.036;8.614;2023-03-13T03:59:51;8.80;99.90
3860;DHT22;1945;52.036;8.614;2023-03-13T04:02:17;8.80;99.90
3860;DHT22;1945;52.036;8.614;2023-03-13T04:04:44;8.90;99.90
3860;DHT22;1945;52.036;8.614;2023-03-13T04:07:11;8.90;99.90
3860;DHT22;1945;52.036;8.614;2023-03-13T04:09:38;8.90;99.90
3860;DHT22;1945;52.036;8.614;2023-03-13T04:12:06;8.90;99.90
3860;DHT22;1945;52.036;8.614;2023-03-13T04:14:33;8.90;99.90
3860;DHT22;1945;52.036;8.614;2023-03-13T04:16:59;8.90;99.90
3860;DHT22;1945;52.036;8.614;2023-03-13T04:19:26;8.90;99.90
3860;DHT22;1945;52.036;8.614;2023-03-13T04:21:53;8.90;99.90
3860;DHT22;1945;52.036;8.614;2023-03-13T04:24:19;8.90;99.90
3860;DHT22;1945;52.036;8.614;2023-03-13T04:26:47;8.90;99.90
3860;DHT22;1945;52.036;8.614;2023-03-13T04:29:14;9.00;99.90
3860;DHT22;1945;52.036;8.614;2023-03-13T04:31:41;9.00;99.90
3860;DHT22;1945;52.036;8.614;2023-03-13T04:34:07;9.00;99.90
3860;DHT22;1945;52.036;8.614;2023-03-13T04:36:34;9.00;99.90
3860;DHT22;1945;52.036;8.614;2023-03-13T04:39:01;9.10;99.90
3860;DHT22;1945;52.036;8.614;2023-03-13T04:41:27;9.10;99.90
3860;DHT22;1945;52.036;8.614;2023-03-13T04:43:55;9.20;99.90
3860;DHT22;1945;52.036;8.614;2023-03-13T04:46:22;9.20;99.90
3860;DHT22;1945;52.036;8.614;2023-03-13T04:48:49;9.20;99.90
3860;DHT22;1945;52.036;8.614;2023-03-13T04:51:15;9.20;99.90
3860;DHT22;1945;52.036;8.614;2023-03-13T04:53:42;9.30;99.90
3860;DHT22;1945;52.036;8.614;2023-03-13T04:56:10;9.30;99.90
3860;DHT22;1945;52.036;8.614;2023-03-13T04:58:37;9.40;99.90
3860;DHT22;1945;52.036;8.614;2023-03-13T05:01:05;9.30;99.90
3860;DHT22;1945;52.036;8.614;2023-03-13T05:03:32;9.40;99.90
3860;DHT22;1945;52.036;8.614;2023-03-13T05:05:58;9.40;99.90
3860;DHT22;1945;52.036;8.614;2023-03-13T05:08:25;9.40;99.90
3860;DHT22;1945;52.036;8.614;2023-03-13T05:10:52;9.40;99.90
3860;DHT22;1945;52.036;8.614;2023-03-13T05:13:18;9.50;99.90
3860;DHT22;1945;52.036;8.614;2023-03-13T05:15:45;9.50;99.90
3860;DHT22;1945;52.036;8.614;2023-03-13T05:18:13;9.50;99.90
3860;DHT22;1945;52.036;8.614;2023-03-13T05:20:40;9.60;99.90
3860;DHT22;1945;52.036;8.614;2023-03-13T05:23:06;9.50;99.90
3860;DHT22;1945;52.036;8.614;2023-03-13T05:25:33;9.50;99.90
3860;DHT22;1945;52.036;8.614;2023-03-13T05:28:00;9.60;99.90
3860;DHT22;1945;52.036;8.614;2023-03-13T05:30:26;9.70;99.90
3860;DHT22;1945;52.036;8.614;2023-03-13T05:32:53;9.70;99.90
3860;DHT22;1945;52.036;8.614;2023-03-13T05:35:21;9.70;99.90
3860;DHT22;1945;52.036;8.614;2023-03-13T05:37:48;9.70;99.90
3860;DHT22;1945;52.036;8.614;2023-03-13T05:40:14;9.70;99.90
3860;DHT22;1945;52.036;8.614;2023-03-13T05:42:41;9.80;99.90
3860;DHT22;1945;52.036;8.614;2023-03-13T05:45:09;9.70;99.90
3860;DHT22;1945;52.036;8.614;2023-03-13T05:47:36;9.90;99.90
3860;DHT22;1945;52.036;8.614;2023-03-13T05:50:05;9.90;99.90
3860;DHT22;1945;52.036;8.614;2023-03-13T05:52:33;9.90;99.90
3860;DHT22;1945;52.036;8.614;2023-03-13T05:55:00;10.00;99.90
3860;DHT22;1945;52.036;8.614;2023-03-13T05:57:27;10.10;99.90
3860;DHT22;1945;52.036;8.614;2023-03-13T05:59:54;10.10;99.90
3860;DHT22;1945;52.036;8.614;2023-03-13T06:02:20;10.10;99.90
3860;DHT22;1945;52.036;8.614;2023-03-13T06:04:47;10.20;99.90
3860;DHT22;1945;52.036;8.614;2023-03-13T06:07:15;10.20;99.90
3860;DHT22;1945;52.036;8.614;2023-03-13T06:09:42;10.30;99.90
3860;DHT22;1945;52.036;8.614;2023-03-13T06:12:10;10.30;99.90
3860;DHT22;1945;52.036;8.614;2023-03-13T06:14:37;10.50;99.90
3860;DHT22;1945;52.036;8.614;2023-03-13T06:17:04;10.40;99.90
3860;DHT22;1945;52.036;8.614;2023-03-13T06:19:31;10.40;99.90
3860;DHT22;1945;52.036;8.614;2023-03-13T06:21:58;10.50;99.90
3860;DHT22;1945;52.036;8.614;2023-03-13T06:24:25;10.50;99.90
3860;DHT22;1945;52.036;8.614;2023-03-13T06:26:53;10.50;99.90
3860;DHT22;1945;52.036;8.614;2023-03-13T06:29:19;10.70;99.90
3860;DHT22;1945;52.036;8.614;2023-03-13T06:31:48;10.70;99.90
3860;DHT22;1945;52.036;8.614;2023-03-13T06:34:15;10.70;99.90
3860;DHT22;1945;52.036;8.614;2023-03-13T06:36:42;10.70;99.90
3860;DHT22;1945;52.036;8.614;2023-03-13T06:39:10;10.80;99.90
3860;DHT22;1945;52.036;8.614;2023-03-13T06:41:37;10.80;99.90
3860;DHT22;1945;52.036;8.614;2023-03-13T06:44:09;10.80;99.90
3860;DHT22;1945;52.036;8.614;2023-03-13T06:46:36;10.80;99.90
3860;DHT22;1945;52.036;8.614;2023-03-13T06:49:02;10.90;99.90
3860;DHT22;1945;52.036;8.614;2023-03-13T06:51:36;10.90;99.90
3860;DHT22;1945;52.036;8.614;2023-03-13T06:54:10;10.90;99.90
3860;DHT22;1945;52.036;8.614;2023-03-13T06:56:36;10.90;99.90
3860;DHT22;1945;52.036;8.614;2023-03-13T06:59:03;10.90;99.90
3860;DHT22;1945;52.036;8.614;2023-03-13T07:01:31;11.00;99.90
3860;DHT22;1945;52.036;8.614;2023-03-13T07:03:58;11.00;99.90
3860;DHT22;1945;52.036;8.614;2023-03-13T07:06:24;11.00;99.90
3860;DHT22;1945;52.036;8.614;2023-03-13T07:08:52;11.00;99.90
3860;DHT22;1945;52.036;8.614;2023-03-13T07:11:19;11.10;99.90
3860;DHT22;1945;52.036;8.614;2023-03-13T07:13:45;11.10;99.90
3860;DHT22;1945;52.036;8.614;2023-03-13T07:16:12;11.10;99.90
3860;DHT22;1945;52.036;8.614;2023-03-13T07:18:40;11.20;99.90
3860;DHT22;1945;52.036;8.614;2023-03-13T07:21:09;11.10;99.90
3860;DHT22;1945;52.036;8.614;2023-03-13T07:23:36;11.20;99.90
3860;DHT22;1945;52.036;8.614;2023-03-13T07:26:05;11.30;99.90
3860;DHT22;1945;52.036;8.614;2023-03-13T07:28:33;10.80;99.90
3860;DHT22;1945;52.036;8.614;2023-03-13T07:31:04;11.30;99.90
3860;DHT22;1945;52.036;8.614;2023-03-13T07:33:31;11.30;99.90
3860;DHT22;1945;52.036;8.614;2023-03-13T07:35:59;11.30;99.90
3860;DHT22;1945;52.036;8.614;2023-03-13T07:38:26;11.40;99.90
3860;DHT22;1945;52.036;8.614;2023-03-13T07:40:53;11.30;99.90
3860;DHT22;1945;52.036;8.614;2023-03-13T07:43:21;11.30;99.90
3860;DHT22;1945;52.036;8.614;2023-03-13T07:45:50;11.40;99.90
3860;DHT22;1945;52.036;8.614;2023-03-13T07:48:17;11.50;99.90
3860;DHT22;1945;52.036;8.614;2023-03-13T07:50:43;11.50;99.90
3860;DHT22;1945;52.036;8.614;2023-03-13T07:53:12;11.60;99.90
3860;DHT22;1945;52.036;8.614;2023-03-13T07:55:51;11.70;82.20
3860;DHT22;1945;52.036;8.614;2023-03-13T07:58:18;11.70;53.30
3860;DHT22;1945;52.036;8.614;2023-03-13T08:00:45;11.70;24.80
3860;DHT22;1945;52.036;8.614;2023-03-13T08:03:12;11.70;2.80
3860;DHT22;1945;52.036;8.614;2023-03-13T08:05:39;11.70;1.00
3860;DHT22;1945;52.036;8.614;2023-03-13T08:08:05;11.70;1.00
3860;DHT22;1945;52.036;8.614;2023-03-13T08:10:33;11.70;1.00
3860;DHT22;1945;52.036;8.614;2023-03-13T08:13:01;11.80;1.00
3860;DHT22;1945;52.036;8.614;2023-03-13T08:15:27;11.80;1.00
3860;DHT22;1945;52.036;8.614;2023-03-13T08:17:55;11.90;1.00
3860;DHT22;1945;52.036;8.614;2023-03-13T08:20:22;11.90;1.00
3860;DHT22;1945;52.036;8.614;2023-03-13T08:22:49;12.00;1.00
3860;DHT22;1945;52.036;8.614;2023-03-13T08:25:16;12.00;1.00
3860;DHT22;1945;52.036;8.614;2023-03-13T08:27:44;12.00;1.00
3860;DHT22;1945;52.036;8.614;2023-03-13T08:30:11;12.10;1.00
3860;DHT22;1945;52.036;8.614;2023-03-13T08:32:38;12.20;1.00
3860;DHT22;1945;52.036;8.614;2023-03-13T08:35:05;12.20;1.00
3860;DHT22;1945;52.036;8.614;2023-03-13T08:37:32;12.30;1.00
3860;DHT22;1945;52.036;8.614;2023-03-13T08:39:59;12.40;1.00
3860;DHT22;1945;52.036;8.614;2023-03-13T08:42:25;12.40;1.00
3860;DHT22;1945;52.036;8.614;2023-03-13T08:44:53;12.50;1.00
3860;DHT22;1945;52.036;8.614;2023-03-13T08:47:20;12.50;1.00
3860;DHT22;1945;52.036;8.614;2023-03-13T08:49:47;12.50;99.90
3860;DHT22;1945;52.036;8.614;2023-03-13T08:52:13;12.50;99.90
3860;DHT22;1945;52.036;8.614;2023-03-13T08:54:40;12.50;99.90
3860;DHT22;1945;52.036;8.614;2023-03-13T08:57:07;12.60;99.90
3860;DHT22;1945;52.036;8.614;2023-03-13T08:59:33;12.80;99.90
3860;DHT22;1945;52.036;8.614;2023-03-13T09:02:01;12.80;99.90
3860;DHT22;1945;52.036;8.614;2023-03-13T09:04:28;12.80;99.90
3860;DHT22;1945;52.036;8.614;2023-03-13T09:06:55;12.80;99.90
3860;DHT22;1945;52.036;8.614;2023-03-13T09:09:21;12.80;99.90
3860;DHT22;1945;52.036;8.614;2023-03-13T09:11:48;12.90;99.90
3860;DHT22;1945;52.036;8.614;2023-03-13T09:14:15;12.90;99.90
3860;DHT22;1945;52.036;8.614;2023-03-13T09:16:41;13.00;99.90
3860;DHT22;1945;52.036;8.614;2023-03-13T09:19:12;13.10;99.90
3860;DHT22;1945;52.036;8.614;2023-03-13T09:21:38;13.10;99.90
3860;DHT22;1945;52.036;8.614;2023-03-13T09:24:06;13.00;99.90
3860;DHT22;1945;52.036;8.614;2023-03-13T09:26:33;13.10;99.90
3860;DHT22;1945;52.036;8.614;2023-03-13T09:28:59;13.10;99.90
3860;DHT22;1945;52.036;8.614;2023-03-13T09:31:27;13.10;99.90
3860;DHT22;1945;52.036;8.614;2023-03-13T09:33:55;13.10;62.90
3860;DHT22;1945;52.036;8.614;2023-03-13T09:36:23;13.10;99.90
3860;DHT22;1945;52.036;8.614;2023-03-13T09:38:51;13.10;99.90
3860;DHT22;1945;52.036;8.614;2023-03-13T09:41:22;13.10;99.90
3860;DHT22;1945;52.036;8.614;2023-03-13T09:43:53;13.00;99.90
3860;DHT22;1945;52.036;8.614;2023-03-13T09:46:24;13.00;99.90
3860;DHT22;1945;52.036;8.614;2023-03-13T09:48:54;12.90;99.90
3860;DHT22;1945;52.036;8.614;2023-03-13T09:51:28;13.00;99.90
3860;DHT22;1945;52.036;8.614;2023-03-13T09:53:59;13.00;99.90
3860;DHT22;1945;52.036;8.614;2023-03-13T09:56:30;13.00;99.90
3860;DHT22;1945;52.036;8.614;2023-03-13T09:59:05;13.10;99.90
3860;DHT22;1945;52.036;8.614;2023-03-13T10:01:37;13.00;99.90
3860;DHT22;1945;52.036;8.614;2023-03-13T10:04:10;13.10;99.90
3860;DHT22;1945;52.036;8.614;2023-03-13T10:06:42;13.40;99.90
3860;DHT22;1945;52.036;8.614;2023-03-13T10:09:16;13.70;99.90
3860;DHT22;1945;52.036;8.614;2023-03-13T10:11:52;13.80;1.00
3860;DHT22;1945;52.036;8.614;2023-03-13T10:14:28;14.00;1.00
3860;DHT22;1945;52.036;8.614;2023-03-13T10:17:00;14.20;1.00
3860;DHT22;1945;52.036;8.614;2023-03-13T10:19:32;14.20;1.00
3860;DHT22;1945;52.036;8.614;2023-03-13T10:22:16;14.30;1.00
3860;DHT22;1945;52.036;8.614;2023-03-13T10:24:48;14.30;1.00
3860;DHT22;1945;52.036;8.614;2023-03-13T10:27:16;14.40;1.00
3860;DHT22;1945;52.036;8.614;2023-03-13T10:29:43;14.80;1.00
3860;DHT22;1945;52.036;8.614;2023-03-13T10:32:12;14.80;1.00
3860;DHT22;1945;52.036;8.614;2023-03-13T10:34:51;14.80;1.00
3860;DHT22;1945;52.036;8.614;2023-03-13T10:37:24;14.70;1.00
3860;DHT22;1945;52.036;8.614;2023-03-13T10:39:52;14.60;1.00
3860;DHT22;1945;52.036;8.614;2023-03-13T10:42:27;14.70;1.00
3860;DHT22;1945;52.036;8.614;2023-03-13T10:45:00;14.80;1.00
3860;DHT22;1945;52.036;8.614;2023-03-13T10:47:32;14.90;1.00
3860;DHT22;1945;52.036;8.614;2023-03-13T10:50:01;14.90;99.90
3860;DHT22;1945;52.036;8.614;2023-03-13T10:52:32;15.00;1.00
3860;DHT22;1945;52.036;8.614;2023-03-13T10:55:00;15.10;99.90
3860;DHT22;1945;52.036;8.614;2023-03-13T10:57:30;15.30;99.90
3860;DHT22;1945;52.036;8.614;2023-03-13T10:59:57;15.60;99.90
3860;DHT22;1945;52.036;8.614;2023-03-13T11:02:28;15.40;86.10
3860;DHT22;1945;52.036;8.614;2023-03-13T11:04:58;15.30;99.90
3860;DHT22;1945;52.036;8.614;2023-03-13T11:07:27;15.30;99.90
3860;DHT22;1945;52.036;8.614;2023-03-13T11:10:01;15.40;51.10
3860;DHT22;1945;52.036;8.614;2023-03-13T11:12:33;15.50;99.90
3860;DHT22;1945;52.036;8.614;2023-03-13T11:15:01;15.60;5.50
3860;DHT22;1945;52.036;8.614;2023-03-13T11:17:32;15.60;99.90
3860;DHT22;1945;52.036;8.614;2023-03-13T11:20:18;15.60;1.00
3860;DHT22;1945;52.036;8.614;2023-03-13T11:22:55;15.50;1.00
3860;DHT22;1945;52.036;8.614;2023-03-13T11:25:30;15.50;1.00
3860;DHT22;1945;52.036;8.614;2023-03-13T11:28:18;15.30;1.00
3860;DHT22;1945;52.036;8.614;2023-03-13T11:30:58;15.50;1.00
3860;DHT22;1945;52.036;8.614;2023-03-13T11:33:39;15.60;1.00
3860;DHT22;1945;52.036;8.614;2023-03-13T11:36:17;15.70;1.00
3860;DHT22;1945;52.036;8.614;2023-03-13T11:38:48;15.80;1.00
3860;DHT22;1945;52.036;8.614;2023-03-13T11:41:38;15.60;1.00
3860;DHT22;1945;52.036;8.614;2023-03-13T11:44:22;15.50;1.00
3860;DHT22;1945;52.036;8.614;2023-03-13T11:46:58;15.50;1.00
3860;DHT22;1945;52.036;8.614;2023-03-13T11:49:42;15.70;1.00
3860;DHT22;1945;52.036;8.614;2023-03-13T11:52:21;15.70;1.00
3860;DHT22;1945;52.036;8.614;2023-03-13T11:55:02;15.60;1.00
3860;DHT22;1945;52.036;8.614;2023-03-13T11:57:41;15.60;1.00
3860;DHT22;1945;52.036;8.614;2023-03-13T12:00:20;15.50;1.00
3860;DHT22;1945;52.036;8.614;2023-03-13T12:02:50;15.60;1.00
3860;DHT22;1945;52.036;8.614;2023-03-13T12:05:20;15.60;1.00
3860;DHT22;1945;52.036;8.614;2023-03-13T12:07:51;15.60;1.00
3860;DHT22;1945;52.036;8.614;2023-03-13T12:10:22;15.80;1.00
3860;DHT22;1945;52.036;8.614;2023-03-13T12:12:58;16.00;1.00
3860;DHT22;1945;52.036;8.614;2023-03-13T12:15:28;16.00;99.90
3860;DHT22;1945;52.036;8.614;2023-03-13T12:18:00;16.10;1.00
3860;DHT22;1945;52.036;8.614;2023-03-13T12:20:33;16.00;99.90
3860;DHT22;1945;52.036;8.614;2023-03-13T12:23:15;16.00;99.90
3860;DHT22;1945;52.036;8.614;2023-03-13T12:25:46;15.90;99.90
3860;DHT22;1945;52.036;8.614;2023-03-13T12:28:27;15.90;99.90
3860;DHT22;1945;52.036;8.614;2023-03-13T12:31:04;16.00;99.90
3860;DHT22;1945;52.036;8.614;2023-03-13T12:33:36;16.10;99.90
3860;DHT22;1945;52.036;8.614;2023-03-13T12:36:10;16.00;99.90
3860;DHT22;1945;52.036;8.614;2023-03-13T12:38:40;16.10;99.90
3860;DHT22;1945;52.036;8.614;2023-03-13T12:41:18;16.10;99.90
3860;DHT22;1945;52.036;8.614;2023-03-13T12:43:48;16.10;99.90
3860;DHT22;1945;52.036;8.614;2023-03-13T12:46:32;16.20;99.90
3860;DHT22;1945;52.036;8.614;2023-03-13T12:49:11;16.30;99.90
3860;DHT22;1945;52.036;8.614;2023-03-13T12:51:55;16.30;99.90
3860;DHT22;1945;52.036;8.614;2023-03-13T12:54:36;16.30;99.90
3860;DHT22;1945;52.036;8.614;2023-03-13T12:57:22;16.30;99.90
3860;DHT22;1945;52.036;8.614;2023-03-13T12:59:57;16.30;99.90
3860;DHT22;1945;52.036;8.614;2023-03-13T13:02:30;16.30;99.90
3860;DHT22;1945;52.036;8.614;2023-03-13T13:04:59;16.50;99.90
3860;DHT22;1945;52.036;8.614;2023-03-13T13:07:27;16.50;90.30
3860;DHT22;1945;52.036;8.614;2023-03-13T13:10:11;16.60;99.90
3860;DHT22;1945;52.036;8.614;2023-03-13T13:12:42;16.60;78.00
3860;DHT22;1945;52.036;8.614;2023-03-13T13:15:24;16.50;60.00
3860;DHT22;1945;52.036;8.614;2023-03-13T13:18:00;16.60;91.80
3860;DHT22;1945;52.036;8.614;2023-03-13T13:20:35;16.70;70.70
3860;DHT22;1945;52.036;8.614;2023-03-13T13:23:23;16.60;44.10
3860;DHT22;1945;52.036;8.614;2023-03-13T13:25:51;16.70;46.60
3860;DHT22;1945;52.036;8.614;2023-03-13T13:28:32;16.70;33.40
3860;DHT22;1945;52.036;8.614;2023-03-13T13:31:01;16.70;25.00
3860;DHT22;1945;52.036;8.614;2023-03-13T13:33:36;16.70;24.40
3860;DHT22;1945;52.036;8.614;2023-03-13T13:36:31;16.80;40.00
3860;DHT22;1945;52.036;8.614;2023-03-13T13:39:24;16.80;28.00
3860;DHT22;1945;52.036;8.614;2023-03-13T13:41:55;16.80;38.00
3860;DHT22;1945;52.036;8.614;2023-03-13T13:44:31;16.80;27.20
3860;DHT22;1945;52.036;8.614;2023-03-13T13:46:59;16.80;21.70
3860;DHT22;1945;52.036;8.614;2023-03-13T13:49:35;16.90;68.10
3860;DHT22;1945;52.036;8.614;2023-03-13T13:52:31;16.80;62.60
3860;DHT22;1945;52.036;8.614;2023-03-13T13:54:58;16.80;22.90
3860;DHT22;1945;52.036;8.614;2023-03-13T13:57:26;16.80;45.40
3860;DHT22;1945;52.036;8.614;2023-03-13T13:59:59;16.90;38.40
3860;DHT22;1945;52.036;8.614;2023-03-13T14:02:33;17.10;23.00
3860;DHT22;1945;52.036;8.614;2023-03-13T14:05:04;17.00;13.70
3860;DHT22;1945;52.036;8.614;2023-03-13T14:07:43;17.00;2.90
3860;DHT22;1945;52.036;8.614;2023-03-13T14:10:33;17.00;1.40
3860;DHT22;1945;52.036;8.614;2023-03-13T14:13:02;17.00;1.00
3860;DHT22;1945;52.036;8.614;2023-03-13T14:15:31;16.90;5.90
3860;DHT22;1945;52.036;8.614;2023-03-13T14:18:09;17.00;4.90
3860;DHT22;1945;52.036;8.614;2023-03-13T14:20:37;17.10;1.00
3860;DHT22;1945;52.036;8.614;2023-03-13T14:23:07;17.00;1.00
3860;DHT22;1945;52.036;8.614;2023-03-13T14:25:43;16.90;1.00
3860;DHT22;1945;52.036;8.614;2023-03-13T14:28:20;16.80;1.00
3860;DHT22;1945;52.036;8.614;2023-03-13T14:30:49;16.80;1.00
3860;DHT22;1945;52.036;8.614;2023-03-13T14:33:17;16.70;1.00
3860;DHT22;1945;52.036;8.614;2023-03-13T14:35:45;16.60;1.00
3860;DHT22;1945;52.036;8.614;2023-03-13T14:38:17;16.60;6.40
3860;DHT22;1945;52.036;8.614;2023-03-13T14:40:46;16.50;11.20
3860;DHT22;1945;52.036;8.614;2023-03-13T14:43:22;16.50;21.30
3860;DHT22;1945;52.036;8.614;2023-03-13T14:45:50;16.50;1.00
3860;DHT22;1945;52.036;8.614;2023-03-13T14:48:21;16.50;1.00
3860;DHT22;1945;52.036;8.614;2023-03-13T14:50:50;16.50;1.00
3860;DHT22;1945;52.036;8.614;2023-03-13T14:53:20;16.50;1.00
3860;DHT22;1945;52.036;8.614;2023-03-13T14:55:57;16.50;1.00
3860;DHT22;1945;52.036;8.614;2023-03-13T14:58:35;16.50;1.00
3860;DHT22;1945;52.036;8.614;2023-03-13T15:01:12;16.40;1.00
3860;DHT22;1945;52.036;8.614;2023-03-13T15:03:44;16.40;1.00
3860;DHT22;1945;52.036;8.614;2023-03-13T15:06:16;16.30;1.00
3860;DHT22;1945;52.036;8.614;2023-03-13T15:08:45;16.30;1.00
3860;DHT22;1945;52.036;8.614;2023-03-13T15:11:21;16.30;12.10
3860;DHT22;1945;52.036;8.614;2023-03-13T15:13:50;16.40;27.90
3860;DHT22;1945;52.036;8.614;2023-03-13T15:16:19;16.40;26.70
3860;DHT22;1945;52.036;8.614;2023-03-13T15:18:48;16.40;37.40
3860;DHT22;1945;52.036;8.614;2023-03-13T15:21:22;16.40;33.70
3860;DHT22;1945;52.036;8.614;2023-03-13T15:23:51;16.30;56.70
3860;DHT22;1945;52.036;8.614;2023-03-13T15:26:18;16.40;40.40
3860;DHT22;1945;52.036;8.614;2023-03-13T15:28:45;16.40;43.80
3860;DHT22;1945;52.036;8.614;2023-03-13T15:31:12;16.30;56.30
3860;DHT22;1945;52.036;8.614;2023-03-13T15:33:40;16.30;56.30
3860;DHT22;1945;52.036;8.614;2023-03-13T15:36:09;16.20;57.20
3860;DHT22;1945;52.036;8.614;2023-03-13T15:38:37;16.20;59.60
3860;DHT22;1945;52.036;8.614;2023-03-13T15:41:04;16.20;66.00
3860;DHT22;1945;52.036;8.614;2023-03-13T15:43:35;16.20;88.20
3860;DHT22;1945;52.036;8.614;2023-03-13T15:46:02;16.10;87.00
3860;DHT22;1945;52.036;8.614;2023-03-13T15:48:29;16.20;81.50
3860;DHT22;1945;52.036;8.614;2023-03-13T15:50:58;16.20;58.90
3860;DHT22;1945;52.036;8.614;2023-03-13T15:53:29;16.00;84.80
3860;DHT22;1945;52.036;8.614;2023-03-13T15:55:57;16.00;89.40
3860;DHT22;1945;52.036;8.614;2023-03-13T15:58:24;16.00;96.60
3860;DHT22;1945;52.036;8.614;2023-03-13T16:00:52;16.00;69.50
3860;DHT22;1945;52.036;8.614;2023-03-13T16:03:21;16.00;96.30
3860;DHT22;1945;52.036;8.614;2023-03-13T16:05:49;16.00;88.60
3860;DHT22;1945;52.036;8.614;2023-03-13T16:08:18;16.00;98.20
3860;DHT22;1945;52.036;8.614;2023-03-13T16:10:46;15.90;99.90
3860;DHT22;1945;52.036;8.614;2023-03-13T16:13:13;15.90;99.90
3860;DHT22;1945;52.036;8.614;2023-03-13T16:15:40;15.90;99.90
3860;DHT22;1945;52.036;8.614;2023-03-13T16:18:09;15.80;99.90
3860;DHT22;1945;52.036;8.614;2023-03-13T16:20:39;15.80;99.90
3860;DHT22;1945;52.036;8.614;2023-03-13T16:23:06;15.80;99.90
3860;DHT22;1945;52.036;8.614;2023-03-13T16:25:32;15.80;99.90
3860;DHT22;1945;52.036;8.614;2023-03-13T16:28:00;15.80;99.90
3860;DHT22;1945;52.036;8.614;2023-03-13T16:30:29;15.70;99.90
3860;DHT22;1945;52.036;8.614;2023-03-13T16:32:57;15.70;99.90